createdAt,value
2023-04-22T01:35:37.283Z,32.78
2023-04-22T01:45:23.122Z,30.25
2023-04-22T01:50:13.603Z,36.50
2023-04-22T01:55:05.175Z,40.70
2023-04-22T01:59:55.513Z,37.17
2023-04-22T02:04:48.189Z,41.28
2023-04-22T02:09:40.836Z,38.83
2023-04-22T02:14:30.925Z,36.23
2023-04-22T02:19:25.756Z,33.73
2023-04-22T02:24:18.335Z,33.88
2023-04-22T02:29:09.818Z,36.23
2023-04-22T02:33:59.779Z,37.17
2023-04-22T02:38:49.736Z,40.83
2023-04-22T02:43:46.515Z,41.73
2023-04-22T02:48:36.931Z,41.65
2023-04-22T02:53:27.103Z,44.43
2023-04-22T02:58:17.020Z,38.43
2023-04-22T03:03:09.638Z,38.58
2023-04-22T03:07:59.722Z,40.45
2023-04-22T03:12:51.181Z,40.30
2023-04-22T03:17:44.055Z,37.38
2023-04-22T03:22:39.619Z,40.53
2023-04-22T03:27:33.673Z,43.28
2023-04-22T03:32:25.477Z,42.60
2023-04-22T03:37:28.948Z,51.00
2023-04-22T03:42:21.839Z,52.67
2023-04-22T03:47:11.862Z,47.17
2023-04-22T03:52:09.435Z,49.20
2023-04-22T03:57:05.501Z,48.05
2023-04-22T04:01:58.565Z,53.17
2023-04-22T04:06:49.832Z,45.17
2023-04-22T04:11:40.629Z,50.40
2023-04-22T04:16:32.400Z,44.55
2023-04-22T04:21:34.332Z,47.13
2023-04-22T04:26:25.420Z,43.63
2023-04-22T04:31:20.401Z,44.33
2023-04-22T04:36:11.672Z,42.53
2023-04-22T04:41:04.560Z,41.47
2023-04-22T04:45:56.082Z,39.28
2023-04-22T04:50:54.999Z,42.53
2023-04-22T04:55:48.421Z,42.33
2023-04-22T05:00:49.291Z,39.63
2023-04-22T05:05:41.633Z,39.67
2023-04-22T05:10:33.249Z,40.15
2023-04-22T05:15:24.416Z,40.72
2023-04-22T05:20:17.469Z,40.00
2023-04-22T05:25:09.560Z,41.53
2023-04-22T05:30:01.732Z,40.08
2023-04-22T05:34:54.613Z,37.53
2023-04-22T05:39:48.745Z,39.25
2023-04-22T05:44:41.521Z,41.47
2023-04-22T05:49:32.237Z,39.70
2023-04-22T05:54:40.668Z,37.63
2023-04-22T05:59:35.463Z,38.00
2023-04-22T06:04:25.659Z,41.67
2023-04-22T06:09:16.384Z,36.53
2023-04-22T06:14:06.316Z,40.20
2023-04-22T09:24:53.519Z,6.75
2023-04-22T09:29:51.063Z,6.90
2023-04-22T09:34:52.416Z,6.78
2023-04-22T09:39:45.349Z,8.23
2023-04-22T10:57:52.925Z,8.25
2023-04-22T11:02:44.582Z,10.47
2023-04-22T11:07:36.580Z,11.75
2023-04-22T11:12:47.876Z,12.77
2023-04-22T11:17:41.315Z,13.88
2023-04-22T11:22:31.477Z,14.85
2023-04-22T11:27:26.420Z,18.30
2023-04-22T11:32:17.209Z,17.13
2023-04-22T11:37:10.599Z,18.25
2023-04-22T11:42:01.290Z,15.93
2023-04-22T11:46:59.136Z,17.27
2023-04-22T12:35:52.714Z,16.88
2023-04-22T12:40:42.877Z,19.58
2023-04-22T12:45:33.112Z,19.80
2023-04-22T12:50:23.263Z,20.52
2023-04-22T12:55:16.342Z,20.98
2023-04-22T13:00:14.356Z,22.00
2023-04-22T13:05:09.141Z,18.40
2023-04-22T13:10:02.327Z,17.67
2023-04-22T13:14:55.545Z,16.98
2023-04-22T13:19:48.425Z,19.02
2023-04-22T13:24:38.486Z,18.70
2023-04-22T13:29:28.978Z,19.10
2023-04-22T13:34:22.013Z,19.50
2023-04-22T13:39:12.114Z,18.17
2023-04-22T13:44:04.280Z,19.37
2023-04-22T13:48:54.545Z,20.23
2023-04-22T13:53:47.388Z,22.10
2023-04-22T13:58:37.994Z,21.33
2023-04-22T14:03:32.279Z,31.38
2023-04-22T14:08:29.648Z,20.73
2023-04-22T14:13:26.132Z,25.25
2023-04-22T14:18:20.699Z,29.35
2023-04-22T14:23:11.705Z,29.67
2023-04-22T14:28:02.082Z,28.93
2023-04-22T14:33:04.319Z,29.35
2023-04-22T14:37:55.944Z,29.70
2023-04-22T14:42:47.716Z,27.30
2023-04-22T14:47:38.326Z,26.30
2023-04-22T14:52:31.090Z,25.77
2023-04-22T14:57:22.828Z,23.85
2023-04-22T15:02:16.747Z,21.00
2023-04-22T15:07:07.724Z,15.55
2023-04-22T15:12:00.346Z,18.58
2023-04-22T15:16:50.329Z,17.75
2023-04-22T15:21:43.661Z,16.17
2023-04-22T15:26:34.093Z,17.73
2023-04-22T15:31:27.379Z,18.98
2023-04-22T15:36:21.133Z,17.33
2023-04-22T15:41:11.107Z,16.23
2023-04-22T15:46:05.396Z,19.30
2023-04-22T15:50:58.167Z,21.23
2023-04-22T15:55:48.732Z,20.97
2023-04-22T16:00:38.681Z,23.73
2023-04-22T16:05:29.456Z,23.90
2023-04-22T16:10:22.079Z,24.53
2023-04-22T16:15:13.344Z,27.93
2023-04-22T16:20:04.182Z,28.67
2023-04-22T16:24:56.190Z,28.17
2023-04-22T16:29:49.150Z,30.33
2023-04-22T16:34:39.147Z,30.60
2023-04-22T16:39:29.173Z,30.17
2023-04-22T16:44:19.440Z,33.10
2023-04-22T16:49:11.976Z,31.80
2023-04-22T16:54:04.266Z,37.20
2023-04-22T16:58:55.604Z,35.87
2023-04-22T17:03:46.883Z,38.25
2023-04-22T17:08:39.497Z,39.33
2023-04-22T17:13:29.595Z,41.63
2023-04-22T17:18:19.413Z,44.53
2023-04-22T17:23:09.263Z,47.47
2023-04-22T17:28:01.704Z,49.50
2023-04-22T17:32:51.676Z,49.53
2023-04-22T17:37:41.624Z,51.65
2023-04-22T17:42:44.733Z,50.28
2023-04-22T17:47:40.487Z,49.50
2023-04-22T17:52:30.675Z,50.28
2023-04-22T17:57:20.546Z,44.97
2023-04-22T18:02:13.414Z,44.78
2023-04-22T18:07:06.125Z,41.72
2023-04-22T18:12:01.011Z,44.33
2023-04-22T18:16:51.096Z,46.53
2023-04-22T18:21:49.515Z,46.40
2023-04-22T18:26:47.372Z,44.45
2023-04-22T18:31:37.380Z,38.88
2023-04-22T18:36:27.738Z,35.75
2023-04-22T18:41:19.692Z,31.45
2023-04-22T18:46:12.268Z,31.42
2023-04-22T18:51:02.247Z,31.08
2023-04-22T18:55:52.399Z,32.00
2023-04-22T19:00:42.446Z,31.03
2023-04-22T19:05:38.699Z,36.58
2023-04-22T19:10:28.890Z,36.38
2023-04-22T19:15:21.584Z,43.33
2023-04-22T19:20:17.691Z,39.63
2023-04-22T19:25:12.559Z,43.92
2023-04-22T19:30:02.449Z,44.45
2023-04-22T19:34:52.934Z,48.70
2023-04-22T19:39:43.020Z,49.08
2023-04-22T19:44:36.547Z,49.60
2023-04-22T19:49:27.497Z,50.45
2023-04-22T19:54:20.561Z,49.95
2023-04-22T19:59:11.259Z,55.67
2023-04-22T20:04:05.166Z,51.90
2023-04-22T20:09:00.059Z,56.08
2023-04-22T20:13:54.563Z,56.78
2023-04-22T20:18:46.396Z,57.33
2023-04-22T20:23:39.325Z,60.45
2023-04-22T20:28:45.224Z,59.53
2023-04-22T20:33:36.218Z,57.47
2023-04-22T20:38:31.145Z,63.10
2023-04-22T20:43:23.538Z,64.20
2023-04-22T20:48:13.737Z,59.33
2023-04-22T20:53:03.999Z,71.30
2023-04-22T20:57:53.876Z,68.70
2023-04-22T21:02:47.115Z,68.35
2023-04-22T21:07:40.629Z,66.67
2023-04-22T21:12:31.634Z,67.03
2023-04-22T21:17:24.303Z,66.80
2023-04-22T21:22:17.391Z,73.20
2023-04-22T21:27:08.259Z,76.00
2023-04-22T21:32:08.080Z,74.18
2023-04-22T21:36:59.633Z,76.80
2023-04-22T21:41:52.349Z,77.25
2023-04-22T21:46:43.387Z,78.35
2023-04-22T21:51:33.228Z,80.13
2023-04-22T21:56:24.397Z,82.63
2023-04-22T22:01:16.844Z,86.38
2023-04-22T22:06:07.620Z,86.50
2023-04-22T22:10:58.087Z,86.45
2023-04-22T22:15:48.010Z,90.10
2023-04-22T22:20:40.465Z,92.87
2023-04-22T22:25:30.451Z,90.63
2023-04-22T22:30:21.819Z,94.13
2023-04-22T22:35:13.032Z,92.95
2023-04-22T22:40:05.811Z,93.47
2023-04-22T22:44:55.954Z,87.05
2023-04-22T22:49:46.377Z,88.28
2023-04-22T22:54:39.782Z,85.55
2023-04-22T22:59:32.344Z,85.13
2023-04-22T23:04:24.469Z,83.50
2023-04-22T23:09:19.060Z,84.63
2023-04-22T23:14:09.746Z,85.57
2023-04-22T23:19:03.017Z,81.53
2023-04-22T23:23:53.508Z,88.03
2023-04-22T23:28:43.935Z,93.53
2023-04-22T23:33:37.671Z,89.72
2023-04-22T23:38:30.181Z,94.95
2023-04-22T23:43:22.331Z,94.93
2023-04-22T23:48:12.568Z,93.15
2023-04-22T23:53:02.441Z,93.38
2023-04-22T23:57:55.841Z,91.10
